Time;durP1;ratioP1;P1;durP2;ratioP2;P2;SDS_P1;SDS_P2;PMS_P1;PMS_P2;Temp;Humidity;BMP_temperature;BMP_pressure;BME280_temperature;BME280_humidity;BME280_pressure;Samples;Min_cycle;Max_cycle;Signal;HPM_P1;HPM_P2
2022/08/25 03:20:31;;;;;;;12.40;8.90;;;;;;;17.86;80.41;101216.37;107001;1271;73921;-85
2022/08/25 03:22:58;;;;;;;14.10;8.70;;;;;;;17.85;80.65;101213.52;107310;1271;72493;-85
2022/08/25 03:28:11;;;;;;;11.00;9.10;;;;;;;17.83;80.96;101213.83;107228;1271;61943;-85
2022/08/25 03:30:38;;;;;;;14.10;9.60;;;;;;;17.82;81.04;101213.42;107325;1271;61496;-85
2022/08/25 03:33:08;;;;;;;14.10;9.40;;;;;;;17.81;81.26;101213.67;107312;1271;75089;-85
2022/08/25 03:35:35;;;;;;;13.40;9.50;;;;;;;17.80;81.37;101214.38;107312;1271;73467;-85
2022/08/25 03:38:03;;;;;;;13.70;10.00;;;;;;;17.78;81.54;101215.51;106851;1271;74031;-85
2022/08/25 03:40:31;;;;;;;13.40;9.90;;;;;;;17.77;81.65;101217.86;107158;1269;63254;-85
2022/08/25 03:42:58;;;;;;;14.30;9.40;;;;;;;17.76;81.96;101215.33;106988;1269;61595;-85
2022/08/25 03:45:25;;;;;;;12.10;9.70;;;;;;;17.73;82.12;101212.74;107249;1272;75115;-85
2022/08/25 03:47:53;;;;;;;14.40;10.00;;;;;;;17.70;82.35;101215.30;106737;1271;73297;-85
2022/08/25 03:50:21;;;;;;;14.70;9.30;;;;;;;17.69;82.42;101215.34;107155;1274;73091;-85
2022/08/25 03:52:53;;;;;;;15.30;10.40;;;;;;;17.67;82.54;101213.08;106923;1271;63274;-85
2022/08/25 03:55:22;;;;;;;15.60;10.90;;;;;;;17.65;82.81;101214.23;107163;1271;61374;-85
2022/08/25 03:57:50;;;;;;;15.40;10.50;;;;;;;17.63;83.00;101212.17;106751;1271;75228;-85
2022/08/25 04:00:18;;;;;;;16.30;11.70;;;;;;;17.62;83.05;101210.59;106952;1271;72786;-85
2022/08/25 04:02:45;;;;;;;16.10;11.40;;;;;;;17.61;83.16;101214.98;107264;1271;72932;-85
2022/08/25 04:05:12;;;;;;;14.70;10.90;;;;;;;17.60;83.21;101215.03;107281;1271;61983;-85
2022/08/25 04:07:41;;;;;;;16.60;11.00;;;;;;;17.58;83.24;101218.84;106910;1271;60564;-85
2022/08/25 04:10:11;;;;;;;14.20;11.20;;;;;;;17.56;83.63;101225.77;106902;1271;74027;-85
2022/08/25 04:12:39;;;;;;;14.50;11.10;;;;;;;17.53;83.51;101225.89;107104;1271;72683;-85
2022/08/25 04:15:07;;;;;;;14.90;10.80;;;;;;;17.52;83.52;101228.00;107149;1271;74874;-85
2022/08/25 04:17:37;;;;;;;15.80;10.40;;;;;;;17.51;83.74;101230.73;107111;1271;63682;-85
2022/08/25 04:20:07;;;;;;;15.30;10.50;;;;;;;17.50;83.72;101232.29;107100;1274;61337;-85
2022/08/25 04:22:35;;;;;;;14.70;10.80;;;;;;;17.48;83.76;101231.35;107124;1271;74556;-86
2022/08/25 04:25:05;;;;;;;15.70;11.60;;;;;;;17.47;83.92;101232.17;107336;1271;71354;-85
2022/08/25 04:27:32;;;;;;;15.60;11.70;;;;;;;17.46;84.14;101232.55;107536;1271;71907;-84
2022/08/25 04:29:59;;;;;;;20.00;12.40;;;;;;;17.45;84.20;101229.41;107046;1271;63564;-85
2022/08/25 04:32:30;;;;;;;17.60;12.10;;;;;;;17.44;84.52;101228.17;107023;1274;60728;-85
2022/08/25 04:34:57;;;;;;;19.00;12.50;;;;;;;17.43;84.69;101224.34;107037;1271;73927;-85
2022/08/25 04:37:24;;;;;;;16.60;12.20;;;;;;;17.43;85.02;101221.12;107592;1271;71487;-84
2022/08/25 04:39:51;;;;;;;25.30;13.10;;;;;;;17.44;85.16;101221.03;107047;1271;73379;-81
2022/08/25 04:42:19;;;;;;;24.60;13.10;;;;;;;17.46;85.43;101219.67;107212;1269;61940;-82
2022/08/25 04:44:46;;;;;;;21.00;13.20;;;;;;;17.49;85.61;101216.90;107336;1271;60536;-82
2022/08/25 04:47:12;;;;;;;19.90;12.20;;;;;;;17.53;85.66;101219.61;107183;1271;74338;-83
2022/08/25 04:49:40;;;;;;;19.10;12.80;;;;;;;17.57;85.93;101211.70;106474;1271;72448;-82
2022/08/25 04:52:07;;;;;;;17.00;12.60;;;;;;;17.60;86.01;101210.24;107083;1271;73049;-82
2022/08/25 04:54:41;;;;;;;16.40;12.60;;;;;;;17.63;86.01;101210.05;107359;1271;62970;-82
2022/08/25 04:57:08;;;;;;;18.90;12.90;;;;;;;17.66;86.24;101204.78;107279;1271;61831;-82
2022/08/25 04:59:35;;;;;;;17.90;13.30;;;;;;;17.70;86.43;101203.61;107191;1270;74140;-82
2022/08/25 05:02:03;;;;;;;18.80;13.00;;;;;;;17.72;86.51;101205.55;107769;1271;71170;-82
2022/08/25 05:04:32;;;;;;;17.30;12.40;;;;;;;17.75;86.57;101203.89;107067;1269;74279;-82
2022/08/25 05:06:59;;;;;;;19.40;14.50;;;;;;;17.78;86.50;101204.80;107192;1271;62483;-82
2022/08/25 05:09:27;;;;;;;19.10;13.90;;;;;;;17.82;86.54;101209.30;106820;1270;61636;-82
2022/08/25 05:11:59;;;;;;;17.80;13.10;;;;;;;17.87;86.84;101215.67;107378;1271;73818;-82
2022/08/25 05:14:26;;;;;;;21.20;13.50;;;;;;;17.94;86.94;101217.55;107138;1271;71508;-84
2022/08/25 05:16:56;;;;;;;20.20;13.50;;;;;;;17.98;86.77;101220.84;107219;1271;72256;-81
2022/08/25 05:19:25;;;;;;;16.90;13.60;;;;;;;18.05;86.92;101219.79;107160;1271;63053;-81
2022/08/25 05:21:52;;;;;;;18.90;14.00;;;;;;;18.09;87.00;101220.23;107239;1271;61525;-82
2022/08/25 05:24:19;;;;;;;16.60;13.30;;;;;;;18.16;87.08;101221.48;107213;1261;75188;-81
2022/08/25 05:26:46;;;;;;;15.10;12.20;;;;;;;18.21;87.12;101221.31;105941;1271;71330;-81
2022/08/25 05:29:14;;;;;;;14.70;12.80;;;;;;;18.26;87.14;101218.05;106163;1271;72921;-81
2022/08/25 05:31:42;;;;;;;20.40;14.40;;;;;;;18.31;87.25;101218.45;106505;1268;62390;-83
2022/08/25 05:34:17;;;;;;;19.10;15.90;;;;;;;18.41;87.35;101219.85;107220;1271;60784;-82
2022/08/25 05:36:45;;;;;;;16.50;13.60;;;;;;;18.49;87.29;101218.83;107764;1258;74113;-81
2022/08/25 05:39:13;;;;;;;20.30;13.30;;;;;;;18.58;87.25;101219.98;106434;1271;71418;-81
2022/08/25 05:41:41;;;;;;;35.20;31.10;;;;;;;18.65;87.12;101222.17;106258;1271;73181;-81
2022/08/25 05:44:08;;;;;;;28.60;23.60;;;;;;;18.73;87.03;101218.64;106248;1271;61964;-81
2022/08/25 05:46:35;;;;;;;16.40;13.40;;;;;;;18.84;86.73;101213.44;106401;1271;60942;-81
2022/08/25 05:49:02;;;;;;;20.50;14.10;;;;;;;18.93;86.52;101214.62;105932;1271;74497;-81
2022/08/25 05:51:29;;;;;;;16.90;12.70;;;;;;;19.02;86.29;101216.91;106955;1271;71875;-82
2022/08/25 05:53:57;;;;;;;20.00;13.60;;;;;;;19.11;85.92;101215.31;107196;1271;72652;-81
2022/08/25 05:56:24;;;;;;;20.20;13.10;;;;;;;19.22;85.73;101214.43;106500;1271;62098;-83
2022/08/25 05:58:50;;;;;;;15.30;12.00;;;;;;;19.32;85.47;101210.22;106993;1271;60874;-81
2022/08/25 06:04:12;;;;;;;21.60;12.50;;;;;;;19.53;84.79;101204.98;106218;1271;70093;-82
2022/08/25 06:06:39;;;;;;;16.70;11.80;;;;;;;19.62;84.63;101203.95;106484;1271;73043;-82
2022/08/25 06:09:08;;;;;;;16.80;11.90;;;;;;;19.72;84.50;101202.44;107007;1271;62051;-82
2022/08/25 06:11:36;;;;;;;14.40;11.90;;;;;;;19.84;84.21;101199.96;107119;1271;60836;-82
2022/08/25 06:14:03;;;;;;;22.40;12.20;;;;;;;19.96;83.79;101199.65;106763;1271;74175;-82
2022/08/25 06:16:30;;;;;;;17.20;12.20;;;;;;;20.05;83.29;101198.81;106281;1272;72000;-82
2022/08/25 06:18:57;;;;;;;16.00;11.90;;;;;;;20.13;83.05;101200.46;107341;1270;72927;-82
2022/08/25 06:21:25;;;;;;;16.00;12.50;;;;;;;20.22;82.81;101202.34;107021;1271;62946;-82
2022/08/25 06:23:52;;;;;;;17.60;11.60;;;;;;;20.29;82.63;101194.06;106710;1271;60404;-82
2022/08/25 06:26:19;;;;;;;18.20;11.80;;;;;;;20.36;82.26;101193.86;106096;1274;73850;-82
2022/08/25 06:28:49;;;;;;;13.30;10.80;;;;;;;20.46;82.18;101192.35;106569;1273;70660;-80
2022/08/25 06:31:17;;;;;;;15.30;11.60;;;;;;;20.55;81.75;101195.64;106507;1274;73519;-81
2022/08/25 06:33:47;;;;;;;15.50;11.60;;;;;;;20.65;81.56;101196.14;106757;1274;61949;-82
2022/08/25 06:36:14;;;;;;;15.30;12.80;;;;;;;20.77;81.23;101201.95;106772;1273;60577;-82
2022/08/25 06:38:42;;;;;;;16.30;12.00;;;;;;;20.88;80.95;101199.04;106377;1274;75398;-82
2022/08/25 06:41:12;;;;;;;15.60;10.80;;;;;;;20.96;80.85;101203.27;105648;1274;1388868;-81
2022/08/25 06:43:41;;;;;;;14.40;10.60;;;;;;;21.01;80.71;101200.49;106299;1272;72927;-83
2022/08/25 06:46:20;;;;;;;14.40;11.00;;;;;;;21.05;80.60;101197.86;106554;1273;62861;-82
2022/08/25 06:48:47;;;;;;;15.30;12.70;;;;;;;21.17;80.72;101195.42;107214;1273;60383;-85
2022/08/25 06:51:17;;;;;;;14.50;10.90;;;;;;;21.34;80.45;101197.50;106523;1274;74152;-85
2022/08/25 06:53:46;;;;;;;15.10;11.90;;;;;;;21.49;79.88;101194.68;106925;1273;71470;-85
2022/08/25 06:56:13;;;;;;;14.30;10.30;;;;;;;21.67;79.45;101192.11;106466;1274;74294;-85
2022/08/25 06:58:41;;;;;;;13.00;11.40;;;;;;;21.84;79.00;101186.59;106321;1274;62002;-85
2022/08/25 07:01:15;;;;;;;13.90;10.20;;;;;;;21.97;78.19;101183.68;106403;1274;61436;-85
2022/08/25 07:03:46;;;;;;;12.70;8.90;;;;;;;22.05;77.52;101182.43;106389;1273;74336;-84
2022/08/25 07:06:14;;;;;;;12.40;9.80;;;;;;;22.15;77.50;101180.15;106624;1273;71886;-84
2022/08/25 07:08:45;;;;;;;11.50;9.60;;;;;;;22.31;77.06;101175.63;107011;1274;74101;-85
2022/08/25 07:11:14;;;;;;;13.10;9.20;;;;;;;22.40;76.13;101177.48;106787;1274;61561;-88
2022/08/25 07:13:43;;;;;;;12.20;9.70;;;;;;;22.53;75.93;101182.02;106701;1273;60515;-87
2022/08/25 07:16:11;;;;;;;13.30;10.10;;;;;;;22.70;75.69;101179.14;106948;1272;75397;-86
2022/08/25 07:18:38;;;;;;;12.40;9.10;;;;;;;22.85;75.02;101179.13;107283;1273;70461;-87
2022/08/25 07:21:05;;;;;;;13.50;10.00;;;;;;;23.02;74.19;101173.14;106522;1274;73632;-87
2022/08/25 07:23:35;;;;;;;13.90;9.70;;;;;;;23.12;73.86;101176.18;106952;1274;61918;-88
2022/08/25 07:26:13;;;;;;;13.60;9.40;;;;;;;23.25;73.31;101180.11;106428;1274;61657;-86
2022/08/25 07:29:00;;;;;;;16.90;9.40;;;;;;;23.43;72.94;101179.23;107127;1273;75420;-87
2022/08/25 07:31:28;;;;;;;13.60;9.30;;;;;;;23.55;72.40;101181.63;106476;1273;72436;-86
2022/08/25 07:36:43;;;;;;;13.50;9.90;;;;;;;23.81;71.26;101175.28;106923;1274;63466;-86
2022/08/25 07:39:10;;;;;;;12.60;9.20;;;;;;;23.93;70.73;101177.54;105971;1274;61700;-87
2022/08/25 07:41:40;;;;;;;13.30;9.10;;;;;;;24.02;70.58;101179.44;106643;1274;75062;-87
2022/08/25 07:44:09;;;;;;;14.40;9.50;;;;;;;24.14;69.95;101184.39;106637;1274;71591;-87
2022/08/25 07:46:36;;;;;;;11.20;8.50;;;;;;;24.28;69.82;101188.83;107231;1273;72925;-87
2022/08/25 07:49:04;;;;;;;12.90;8.40;;;;;;;24.43;69.22;101190.07;105992;1274;62122;-87
2022/08/25 07:51:42;;;;;;;22.20;8.50;;;;;;;24.57;69.16;101195.57;106098;1274;60918;-86
2022/08/25 07:54:31;;;;;;;13.70;8.50;;;;;;;24.80;68.61;101191.77;107303;1274;72990;-86
2022/08/25 07:57:02;;;;;;;12.50;8.10;;;;;;;24.96;67.89;101191.58;106420;1274;72417;-88
2022/08/25 07:59:29;;;;;;;10.20;7.90;;;;;;;25.05;67.50;101187.19;106727;1274;72847;-87
2022/08/25 08:02:12;;;;;;;10.80;7.90;;;;;;;25.12;67.19;101190.02;106977;1274;62270;-86
2022/08/25 08:04:50;;;;;;;13.60;8.80;;;;;;;25.18;66.82;101191.21;107328;1274;60432;-86
2022/08/25 08:07:24;;;;;;;10.20;7.40;;;;;;;25.34;66.63;101192.48;106588;1273;73981;-87
2022/08/25 08:10:11;;;;;;;9.80;7.40;;;;;;;25.46;65.97;101195.92;106453;1274;72438;-85
2022/08/25 08:12:59;;;;;;;13.70;8.10;;;;;;;25.52;65.59;101189.98;106605;1274;75874;-87
2022/08/25 08:15:26;;;;;;;11.70;7.10;;;;;;;25.63;65.50;101192.27;106660;1274;62468;-86
2022/08/25 08:17:57;;;;;;;9.80;7.10;;;;;;;25.76;64.93;101190.60;106927;1274;60356;-86
2022/08/25 08:20:25;;;;;;;13.10;9.10;;;;;;;25.88;64.66;101185.22;106351;1273;73966;-86
2022/08/25 08:22:52;;;;;;;13.40;8.00;;;;;;;26.00;63.61;101180.01;107067;1273;71365;-86
2022/08/25 08:25:18;;;;;;;10.90;7.50;;;;;;;26.07;63.44;101177.16;106598;1273;72798;-87
2022/08/25 08:27:55;;;;;;;11.30;7.10;;;;;;;26.17;63.57;101168.04;106948;1274;62054;-86
2022/08/25 08:30:22;;;;;;;12.90;7.90;;;;;;;26.32;62.98;101170.31;106662;1274;60585;-85
2022/08/25 08:32:53;;;;;;;11.00;7.40;;;;;;;26.48;62.88;101171.80;106724;1274;74162;-86
2022/08/25 08:35:39;;;;;;;12.30;7.40;;;;;;;26.68;62.36;101166.58;106871;1273;71387;-87
2022/08/25 08:38:07;;;;;;;12.70;6.50;;;;;;;26.81;61.62;101168.75;106675;1274;73352;-88
2022/08/25 08:42:15;;;;;;;10.30;7.00;;;;;;;26.85;61.15;101164.45;107027;1273;62094;-87
2022/08/25 08:43:42;;;;;;;13.90;7.40;;;;;;;27.02;61.11;101166.98;106862;1274;61099;-87
2022/08/25 08:46:09;;;;;;;23.80;14.40;;;;;;;27.12;60.54;101171.08;107143;1274;75422;-83
2022/08/25 08:49:04;;;;;;;14.60;6.80;;;;;;;27.27;60.34;101166.73;106331;1272;72100;-82
2022/08/25 08:51:42;;;;;;;9.20;6.40;;;;;;;27.34;59.57;101165.62;106847;1273;71772;-81
2022/08/25 08:54:19;;;;;;;8.90;6.40;;;;;;;27.35;59.34;101162.34;105975;1272;62069;-81
2022/08/25 08:56:56;;;;;;;10.10;6.70;;;;;;;27.39;59.31;101155.04;106553;1273;60670;-81
2022/08/25 08:59:26;;;;;;;10.70;6.90;;;;;;;27.40;59.08;101150.40;106822;1274;74148;-81
2022/08/25 09:02:01;;;;;;;9.60;6.70;;;;;;;27.50;58.69;101145.36;106595;1274;72401;-81
2022/08/25 09:04:44;;;;;;;8.90;6.70;;;;;;;27.53;58.74;101144.76;106798;1274;75331;-81
2022/08/25 09:07:16;;;;;;;10.30;7.10;;;;;;;27.63;58.50;101143.89;106054;1274;60878;-80
2022/08/25 09:09:46;;;;;;;11.90;6.60;;;;;;;27.79;58.35;101138.83;106948;1274;60550;-80
2022/08/25 09:12:41;;;;;;;12.70;6.40;;;;;;;28.06;57.74;101134.92;106434;1274;73260;-82
2022/08/25 09:19:00;;;;;;;12.00;5.90;;;;;;;28.58;55.30;101137.77;107553;1273;72971;-79
2022/08/25 09:21:44;;;;;;;10.40;6.60;;;;;;;28.75;55.51;101127.96;106765;1272;60730;-80
2022/08/25 09:24:56;;;;;;;10.80;6.20;;;;;;;28.97;54.88;101129.13;106733;1273;60599;-79
2022/08/25 09:27:28;;;;;;;15.00;6.40;;;;;;;29.13;53.31;101123.43;106917;1274;74610;-81
2022/08/25 09:30:04;;;;;;;8.50;5.70;;;;;;;29.24;53.72;101118.00;106189;1274;72805;-80
2022/08/25 09:32:41;;;;;;;9.60;5.70;;;;;;;29.42;53.13;101115.89;106497;1273;72859;-81
2022/08/25 09:35:21;;;;;;;8.40;5.20;;;;;;;29.61;52.57;101121.84;106172;1273;60650;-81
2022/08/25 09:37:59;;;;;;;13.30;5.30;;;;;;;29.85;51.41;101120.81;106005;1274;61259;-81
2022/08/25 09:40:29;;;;;;;8.00;5.30;;;;;;;30.00;50.55;101124.62;106767;1274;74223;-80
2022/08/25 09:42:58;;;;;;;9.70;5.50;;;;;;;30.02;50.09;101123.81;105944;1275;71369;-81
2022/08/25 09:45:39;;;;;;;10.30;5.80;;;;;;;30.03;50.12;101118.27;106509;1273;73502;-81
2022/08/25 09:48:37;;;;;;;7.60;4.80;;;;;;;30.19;49.38;101113.73;106589;1273;60698;-81
2022/08/25 09:51:20;;;;;;;7.40;5.20;;;;;;;30.23;48.55;101111.80;106619;1274;61788;-80
2022/08/25 09:54:12;;;;;;;7.90;4.90;;;;;;;30.29;48.74;101106.23;106157;1274;74184;-80
2022/08/25 09:56:58;;;;;;;10.60;5.40;;;;;;;30.41;48.91;101105.30;106576;1274;71403;-81
2022/08/25 09:59:32;;;;;;;12.10;5.40;;;;;;;30.56;48.20;101104.67;106209;1274;72768;-81
2022/08/25 10:02:19;;;;;;;10.20;5.70;;;;;;;30.55;48.09;101095.16;106649;1274;61449;-81
2022/08/25 10:04:46;;;;;;;9.50;5.30;;;;;;;30.67;47.99;101093.97;106177;1274;60568;-80
2022/08/25 10:07:25;;;;;;;14.30;6.00;;;;;;;30.67;47.98;101094.94;106490;1274;75485;-80
2022/08/25 10:09:55;;;;;;;10.20;5.50;;;;;;;30.68;48.04;101094.05;106737;1274;71764;-80
2022/08/25 10:12:40;;;;;;;10.60;5.80;;;;;;;30.65;47.50;101089.05;106535;1274;73008;-81
2022/08/25 10:15:25;;;;;;;11.60;5.60;;;;;;;30.74;47.46;101087.45;106744;1274;60456;-80
2022/08/25 10:18:24;;;;;;;13.00;5.70;;;;;;;30.85;47.14;101089.11;106149;1274;61786;-80
2022/08/25 10:21:10;;;;;;;8.10;5.20;;;;;;;30.85;47.24;101084.23;106834;1273;73261;-80
2022/08/25 10:23:51;;;;;;;9.40;5.10;;;;;;;31.00;47.72;101082.05;105851;1274;72082;-80
2022/08/25 10:26:46;;;;;;;8.40;5.30;;;;;;;31.00;46.58;101078.88;106768;1274;72977;-80
2022/08/25 10:29:25;;;;;;;9.90;5.60;;;;;;;30.90;46.65;101074.23;106794;1273;60496;-80
2022/08/25 10:31:58;;;;;;;16.30;6.80;;;;;;;30.84;46.48;101066.06;106668;1265;61439;-80
2022/08/25 10:34:40;;;;;;;9.50;5.60;;;;;;;30.72;46.95;101067.91;106369;1271;75189;-81
2022/08/25 10:37:28;;;;;;;9.90;6.40;;;;;;;30.83;46.78;101061.80;106387;1271;71168;-80
2022/08/25 10:40:17;;;;;;;9.90;5.80;;;;;;;31.06;46.85;101056.28;106114;1271;72742;-80
2022/08/25 10:43:20;;;;;;;11.00;5.80;;;;;;;31.29;46.34;101056.64;105609;1271;61574;-81
2022/08/25 10:46:00;;;;;;;8.10;5.20;;;;;;;31.50;45.66;101052.06;106032;1271;61339;-81
2022/08/25 10:48:51;;;;;;;10.00;5.50;;;;;;;31.52;45.08;101047.96;106203;1271;75297;-80
2022/08/25 10:51:54;;;;;;;8.70;6.00;;;;;;;31.60;44.84;101039.50;106107;1274;72530;-81
2022/08/25 10:54:43;;;;;;;9.60;5.70;;;;;;;31.71;44.96;101030.75;106194;1271;74083;-80
2022/08/25 10:57:27;;;;;;;11.10;5.90;;;;;;;31.87;45.40;101024.77;106538;1274;60540;-80
2022/08/25 11:00:13;;;;;;;8.70;5.70;;;;;;;31.82;44.67;101026.31;105659;1271;60367;-81
2022/08/25 11:02:53;;;;;;;13.90;5.50;;;;;;;31.75;43.98;101022.61;106397;1271;73754;-80
2022/08/25 11:05:23;;;;;;;15.40;6.10;;;;;;;31.84;44.64;101020.30;106105;1271;72013;-80
2022/08/25 11:07:56;;;;;;;8.60;5.40;;;;;;;31.91;44.26;101019.42;106624;1271;75864;-80
2022/08/25 11:10:41;;;;;;;13.70;5.90;;;;;;;31.93;43.31;101016.53;105827;1271;61562;-81
2022/08/25 11:13:17;;;;;;;10.00;5.20;;;;;;;31.82;43.96;101013.65;106885;1271;60763;-80
2022/08/25 11:15:53;;;;;;;16.50;6.60;;;;;;;31.84;44.19;101011.20;105885;1273;73943;-80
2022/08/25 11:19:08;;;;;;;9.90;5.30;;;;;;;31.88;43.76;101005.01;106321;1271;73114;-80
2022/08/25 11:21:43;;;;;;;9.20;5.70;;;;;;;31.77;44.01;100997.04;106045;1271;73741;-80
2022/08/25 11:24:35;;;;;;;11.20;5.70;;;;;;;31.82;44.18;100997.20;106514;1271;62353;-80
2022/08/25 11:27:08;;;;;;;16.00;6.00;;;;;;;31.89;44.14;100990.77;106594;1271;60580;-80
2022/08/25 11:29:44;;;;;;;12.10;5.40;;;;;;;31.90;43.53;100987.46;105797;1271;74086;-79
2022/08/25 11:32:13;;;;;;;10.40;5.50;;;;;;;31.91;43.52;100981.88;106768;1274;72385;-80
2022/08/25 11:34:40;;;;;;;7.00;5.10;;;;;;;31.95;43.61;100976.42;106471;1274;73435;-81
2022/08/25 11:37:26;;;;;;;19.30;5.40;;;;;;;32.09;42.90;100975.91;106707;1274;61007;-80
2022/08/25 11:40:07;;;;;;;14.70;5.30;;;;;;;32.26;42.14;100968.07;106386;1274;62910;-81
2022/08/25 11:42:50;;;;;;;10.00;4.70;;;;;;;32.29;41.60;100970.17;106303;1273;74705;-79
2022/08/25 11:45:23;;;;;;;11.10;4.80;;;;;;;32.30;41.57;100974.45;106275;1274;72416;-81
2022/08/25 11:48:02;;;;;;;8.30;4.80;;;;;;;32.35;42.16;100969.77;106096;1273;73895;-80
2022/08/25 11:50:36;;;;;;;8.90;5.10;;;;;;;32.47;41.68;100966.90;106947;1274;60846;-81
2022/08/25 11:53:24;;;;;;;9.10;4.70;;;;;;;32.62;41.65;100964.48;106399;1274;60803;-80
2022/08/25 11:55:55;;;;;;;10.80;4.50;;;;;;;32.85;41.32;100961.49;106537;1275;75149;-80
2022/08/25 11:58:28;;;;;;;11.40;4.80;;;;;;;33.15;40.90;100962.08;105996;1274;72498;-80
2022/08/25 12:00:58;;;;;;;11.50;4.40;;;;;;;33.41;39.68;100955.96;106865;1274;72784;-81
2022/08/25 12:03:31;;;;;;;15.30;4.50;;;;;;;33.77;38.97;100951.60;105981;1274;61889;-80
2022/08/25 12:06:20;;;;;;;7.50;4.20;;;;;;;34.24;38.59;100946.00;106706;1273;62218;-80
2022/08/25 12:08:46;;;;;;;6.40;4.30;;;;;;;34.67;37.07;100941.27;106581;1274;75266;-81
2022/08/25 12:11:53;;;;;;;14.10;4.60;;;;;;;35.02;36.42;100941.52;106417;1274;71492;-80
2022/08/25 12:14:23;;;;;;;11.00;4.40;;;;;;;35.53;35.28;100941.27;106789;1273;72994;-81
2022/08/25 12:16:53;;;;;;;7.70;3.80;;;;;;;35.90;34.14;100940.61;106173;1274;60785;-82
2022/08/25 12:19:35;;;;;;;7.30;3.90;;;;;;;36.16;34.24;100934.98;106799;1273;60519;-80
2022/08/25 12:22:03;;;;;;;6.70;4.10;;;;;;;36.54;33.54;100938.70;106177;1273;73941;-81
2022/08/25 12:24:42;;;;;;;8.80;4.00;;;;;;;36.78;32.94;100935.05;106772;1274;72210;-81
2022/08/25 12:27:30;;;;;;;6.90;3.90;;;;;;;37.15;32.62;100928.73;106372;1273;72830;-81
2022/08/25 12:30:18;;;;;;;8.80;4.00;;;;;;;37.47;31.95;100930.45;106893;1274;60452;-81
2022/08/25 12:33:24;;;;;;;5.20;3.10;;;;;;;37.39;31.25;100929.75;106931;1274;61825;-82
2022/08/25 12:35:51;;;;;;;9.20;4.10;;;;;;;36.53;31.76;100926.98;107064;1274;74125;-81
2022/08/25 12:38:45;;;;;;;7.60;4.30;;;;;;;36.45;32.10;100926.70;106150;1274;61007;-82
2022/08/25 12:41:29;;;;;;;6.10;3.40;;;;;;;36.44;32.15;100918.23;106761;1274;73759;-81
2022/08/25 12:44:33;;;;;;;8.70;3.90;;;;;;;36.32;32.23;100919.20;106713;1274;60963;-81
2022/08/25 12:47:18;;;;;;;9.90;4.30;;;;;;;37.40;31.64;100909.84;106262;1274;60816;-81
2022/08/25 12:49:49;;;;;;;9.30;3.50;;;;;;;37.62;30.62;100909.08;106997;1274;74497;-81
2022/08/25 12:52:21;;;;;;;8.00;4.10;;;;;;;37.54;30.72;100914.38;106427;1274;71406;-82
2022/08/25 12:54:57;;;;;;;12.00;4.10;;;;;;;37.93;29.83;100908.53;106390;1274;72950;-82
2022/08/25 12:57:48;;;;;;;8.90;3.70;;;;;;;37.89;29.74;100910.23;106633;1274;61681;-81
2022/08/25 13:00:25;;;;;;;8.30;3.60;;;;;;;38.27;29.26;100899.99;107166;1274;60402;-81
2022/08/25 13:03:00;;;;;;;7.60;3.50;;;;;;;37.94;29.40;100906.42;107284;1272;74912;-81
2022/08/25 13:06:13;;;;;;;7.80;3.50;;;;;;;37.53;29.83;100903.20;107071;1274;73870;-81
2022/08/25 13:09:07;;;;;;;6.10;3.20;;;;;;;37.73;29.57;100898.59;106914;1273;72903;-82
2022/08/25 13:11:42;;;;;;;7.20;3.20;;;;;;;38.30;28.59;100895.06;107078;1274;60750;-81
2022/08/25 13:14:23;;;;;;;8.40;3.60;;;;;;;38.76;27.76;100891.64;106905;1274;61602;-82
2022/08/25 13:16:56;;;;;;;6.10;3.30;;;;;;;38.62;27.61;100887.36;106865;1274;74002;-81
2022/08/25 13:19:24;;;;;;;7.70;3.40;;;;;;;38.61;27.88;100886.45;106483;1273;71159;-81
2022/08/25 13:21:51;;;;;;;5.90;3.30;;;;;;;39.34;27.45;100879.95;106827;1274;73949;-80
2022/08/25 13:24:32;;;;;;;7.20;3.30;;;;;;;40.10;26.81;100873.56;106339;1274;62410;-81
2022/08/25 13:27:16;;;;;;;6.20;3.30;;;;;;;40.86;25.56;100867.70;106034;1274;60923;-81
2022/08/25 13:29:55;;;;;;;6.90;3.30;;;;;;;41.47;24.32;100863.00;106950;1274;73934;-82
2022/08/25 13:32:32;;;;;;;8.00;3.40;;;;;;;42.04;23.76;100861.30;106338;1273;72587;-82
2022/08/25 13:35:15;;;;;;;8.50;3.40;;;;;;;42.23;23.77;100863.67;106581;1274;72904;-82
2022/08/25 13:37:45;;;;;;;11.10;3.20;;;;;;;42.66;23.44;100856.46;106272;1274;60640;-81
2022/08/25 13:40:21;;;;;;;6.10;2.90;;;;;;;43.33;22.77;100852.89;106640;1273;60363;-81
2022/08/25 13:43:01;;;;;;;6.90;3.10;;;;;;;43.70;22.10;100849.52;106499;1273;74148;-81
2022/08/25 13:45:33;;;;;;;8.30;3.00;;;;;;;44.31;21.71;100852.77;106023;1274;72377;-83
2022/08/25 13:48:09;;;;;;;8.40;3.00;;;;;;;44.70;20.88;100856.67;106595;1273;72536;-84
2022/08/25 13:50:50;;;;;;;6.10;3.20;;;;;;;45.07;20.43;100853.14;106338;1274;61646;-82
2022/08/25 13:53:24;;;;;;;7.80;2.90;;;;;;;45.59;20.22;100852.27;106472;1272;60557;-81
2022/08/25 13:55:54;;;;;;;8.30;2.80;;;;;;;46.05;19.42;100849.71;106213;1274;73858;-80
2022/08/25 13:58:27;;;;;;;7.90;3.10;;;;;;;46.22;19.03;100846.83;106565;1274;71700;-83
2022/08/25 14:01:29;;;;;;;4.90;2.40;;;;;;;46.39;18.74;100844.66;105675;1274;71974;-82
2022/08/25 14:04:33;;;;;;;3.40;2.30;;;;;;;45.97;19.09;100844.36;106343;1274;63401;-82
2022/08/25 14:07:07;;;;;;;4.90;2.50;;;;;;;45.89;19.26;100834.41;106452;1272;60435;-83
2022/08/25 14:09:57;;;;;;;8.30;3.10;;;;;;;45.99;19.37;100837.69;106117;1273;75211;-82
2022/08/25 14:12:36;;;;;;;6.10;2.60;;;;;;;46.10;19.26;100831.33;106270;1273;72285;-82
2022/08/25 14:15:28;;;;;;;6.20;3.10;;;;;;;45.24;19.56;100830.31;105944;1274;76097;-81
2022/08/25 14:18:18;;;;;;;6.90;3.10;;;;;;;44.46;20.54;100831.57;106549;1273;61593;-81
2022/08/25 14:20:49;;;;;;;9.60;3.30;;;;;;;43.62;20.93;100828.74;106207;1272;60575;-81
2022/08/25 14:23:20;;;;;;;7.90;3.40;;;;;;;42.73;21.92;100824.05;106823;1273;74182;-80
2022/08/25 14:25:49;;;;;;;5.80;3.10;;;;;;;42.54;22.21;100822.13;106406;1273;72752;-81
2022/08/25 14:28:28;;;;;;;7.40;3.60;;;;;;;43.08;22.08;100822.68;106966;1272;75748;-81
2022/08/25 14:31:10;;;;;;;9.50;3.10;;;;;;;43.03;21.76;100824.42;105893;1274;60893;-81
2022/08/25 14:33:41;;;;;;;8.00;3.30;;;;;;;43.28;21.84;100820.58;106498;1272;62574;-81
2022/08/25 14:36:09;;;;;;;7.70;3.10;;;;;;;43.46;21.68;100819.48;106851;1274;75439;-80
2022/08/25 14:38:37;;;;;;;7.60;2.80;;;;;;;43.51;21.71;100814.86;106187;1273;71436;-81
2022/08/25 14:41:07;;;;;;;6.80;3.30;;;;;;;44.03;21.21;100812.21;106210;1274;73979;-81
2022/08/25 14:43:38;;;;;;;5.50;3.00;;;;;;;44.61;20.69;100807.92;106193;1273;60582;-81
2022/08/25 14:46:18;;;;;;;6.90;2.80;;;;;;;44.74;20.62;100799.16;106831;1274;60769;-82
2022/08/25 14:48:48;;;;;;;6.30;3.40;;;;;;;44.41;20.86;100803.44;106560;1273;75756;-82
2022/08/25 14:51:17;;;;;;;7.90;3.10;;;;;;;44.58;20.39;100797.23;106623;1261;71091;-82
2022/08/25 14:53:44;;;;;;;7.20;3.00;;;;;;;44.95;19.94;100794.73;106236;1271;73980;-82
2022/08/25 14:56:10;;;;;;;5.10;2.80;;;;;;;45.23;19.56;100789.13;106453;1271;60603;-84
2022/08/25 14:58:40;;;;;;;5.60;2.80;;;;;;;45.28;19.65;100790.63;106745;1271;60443;-82
2022/08/25 15:01:21;;;;;;;7.60;3.00;;;;;;;45.09;19.81;100786.73;106175;1270;74010;-81
2022/08/25 15:04:17;;;;;;;10.10;3.20;;;;;;;44.61;20.25;100783.22;107006;1271;72317;-82
2022/08/25 15:06:46;;;;;;;9.70;3.20;;;;;;;43.60;21.09;100787.63;106651;1271;74080;-83
2022/08/25 15:09:15;;;;;;;7.80;3.50;;;;;;;43.05;21.35;100789.17;106467;1271;60788;-81
2022/08/25 15:11:47;;;;;;;8.10;3.40;;;;;;;42.45;22.06;100787.19;106684;1270;61215;-81
2022/08/25 15:14:17;;;;;;;7.00;3.30;;;;;;;41.81;22.86;100789.23;106871;1271;74108;-81
2022/08/25 15:17:00;;;;;;;7.10;3.40;;;;;;;41.45;23.44;100783.66;106386;1274;70840;-79